Time;durP1;ratioP1;P1;durP2;ratioP2;P2;SDS_P1;SDS_P2;PMS_P1;PMS_P2;Temp;Humidity;BMP_temperature;BMP_pressure;BME280_temperature;BME280_humidity;BME280_pressure;Samples;Min_cycle;Max_cycle;Signal;HPM_P1;HPM_P2
2023/03/16 00:01:13;;;;;;;6.65;2.22;;;;;;;;;;6198430;23;20035;-96
2023/03/16 00:03:40;;;;;;;6.63;2.72;;;;;;;;;;6197875;23;20012;-96
2023/03/16 00:06:06;;;;;;;7.68;2.47;;;;;;;;;;6198824;23;20013;-96
2023/03/16 00:08:33;;;;;;;6.80;2.53;;;;;;;;;;6223543;23;20010;-96
2023/03/16 00:11:01;;;;;;;10.13;2.40;;;;;;;;;;6222938;23;20000;-96
2023/03/16 00:13:34;;;;;;;4.35;1.98;;;;;;;;;;6197401;23;20442;-95
2023/03/16 00:16:04;;;;;;;11.18;2.67;;;;;;;;;;6222938;23;20012;-96
2023/03/16 00:18:38;;;;;;;8.52;2.10;;;;;;;;;;6224014;22;20016;-96
2023/03/16 00:21:04;;;;;;;3.22;1.83;;;;;;;;;;6223579;23;20008;-96
2023/03/16 00:23:34;;;;;;;4.13;2.03;;;;;;;;;;6222178;23;20004;-95
2023/03/16 00:26:02;;;;;;;13.57;2.35;;;;;;;;;;6248902;23;20015;-96
2023/03/16 00:28:34;;;;;;;7.07;2.40;;;;;;;;;;6199632;23;20016;-95
2023/03/16 00:31:04;;;;;;;6.55;3.00;;;;;;;;;;6226080;23;20450;-96
2023/03/16 00:33:33;;;;;;;7.03;2.20;;;;;;;;;;6224321;23;20036;-95
2023/03/16 00:36:03;;;;;;;7.22;2.30;;;;;;;;;;6224030;23;20422;-96
2023/03/16 00:38:34;;;;;;;3.08;1.60;;;;;;;;;;6224846;23;20008;-96
2023/03/16 00:41:09;;;;;;;13.60;3.03;;;;;;;;;;6224724;23;20085;-95
2023/03/16 00:43:39;;;;;;;4.60;1.50;;;;;;;;;;6200924;23;20032;-96
2023/03/16 00:46:07;;;;;;;5.82;2.00;;;;;;;;;;6226003;23;20000;-96
2023/03/16 00:48:34;;;;;;;5.53;2.03;;;;;;;;;;6225245;23;20068;-95
2023/03/16 00:51:05;;;;;;;6.10;2.10;;;;;;;;;;6225596;23;20075;-95
2023/03/16 00:53:35;;;;;;;8.73;2.53;;;;;;;;;;6225942;23;20008;-96
2023/03/16 00:56:03;;;;;;;9.60;2.85;;;;;;;;;;6225236;23;20012;-95
2023/03/16 00:58:35;;;;;;;6.30;2.60;;;;;;;;;;6225473;23;20019;-96
2023/03/16 01:01:06;;;;;;;4.40;2.50;;;;;;;;;;6228114;23;20038;-95
2023/03/16 01:03:32;;;;;;;7.50;2.33;;;;;;;;;;6224956;23;20004;-96
2023/03/16 01:06:06;;;;;;;8.43;2.63;;;;;;;;;;6221764;23;20008;-95
2023/03/16 01:08:32;;;;;;;6.78;2.05;;;;;;;;;;6219832;23;20004;-95
2023/03/16 01:11:18;;;;;;;9.30;2.38;;;;;;;;;;6199333;23;20042;-96
2023/03/16 01:13:46;;;;;;;8.77;2.40;;;;;;;;;;6221009;23;20019;-95
2023/03/16 01:16:12;;;;;;;9.18;2.58;;;;;;;;;;6224247;23;20018;-96
2023/03/16 01:18:42;;;;;;;10.93;2.40;;;;;;;;;;6224886;22;20051;-96
2023/03/16 01:21:08;;;;;;;4.28;2.25;;;;;;;;;;6221363;23;20303;-96
2023/03/16 01:23:36;;;;;;;5.53;2.20;;;;;;;;;;6222400;23;20005;-96
2023/03/16 01:26:02;;;;;;;8.15;2.10;;;;;;;;;;6221206;23;20399;-95
2023/03/16 01:28:33;;;;;;;6.38;2.15;;;;;;;;;;6195192;23;20031;-95
2023/03/16 01:31:01;;;;;;;4.40;2.25;;;;;;;;;;6198575;23;20032;-96
2023/03/16 01:33:27;;;;;;;7.63;2.58;;;;;;;;;;6219826;23;20019;-96
2023/03/16 01:35:54;;;;;;;5.88;2.47;;;;;;;;;;6221080;23;20094;-96
2023/03/16 01:38:20;;;;;;;7.78;2.53;;;;;;;;;;6218409;23;20034;-96
2023/03/16 01:40:50;;;;;;;5.30;2.50;;;;;;;;;;6221336;23;20012;-96
2023/03/16 01:43:19;;;;;;;9.68;2.75;;;;;;;;;;6221185;23;20019;-95
2023/03/16 01:46:04;;;;;;;12.45;2.90;;;;;;;;;;6198777;23;20019;-96
2023/03/16 01:48:38;;;;;;;11.52;3.50;;;;;;;;;;6220214;23;20011;-96
2023/03/16 01:51:19;;;;;;;8.63;3.30;;;;;;;;;;6221680;23;20434;-96
2023/03/16 01:53:46;;;;;;;8.02;2.95;;;;;;;;;;6220240;23;20493;-96
2023/03/16 01:56:17;;;;;;;5.25;2.83;;;;;;;;;;6220658;23;20012;-96
2023/03/16 01:58:43;;;;;;;5.63;2.72;;;;;;;;;;6222678;23;20008;-96
2023/03/16 02:01:11;;;;;;;9.88;3.17;;;;;;;;;;6197999;23;20585;-95
2023/03/16 02:03:40;;;;;;;7.57;3.03;;;;;;;;;;6221152;23;20004;-95
2023/03/16 02:06:22;;;;;;;6.63;3.03;;;;;;;;;;6222052;23;20060;-96
2023/03/16 02:08:49;;;;;;;9.60;3.05;;;;;;;;;;6198806;23;20019;-96
2023/03/16 02:11:23;;;;;;;11.02;3.28;;;;;;;;;;6224745;23;20012;-96
2023/03/16 02:13:52;;;;;;;8.00;3.15;;;;;;;;;;6201201;23;20012;-95
2023/03/16 02:16:21;;;;;;;6.82;3.08;;;;;;;;;;6223153;23;20035;-96
2023/03/16 02:18:48;;;;;;;5.78;3.03;;;;;;;;;;6225190;22;20016;-96
2023/03/16 02:21:24;;;;;;;11.43;3.40;;;;;;;;;;6224607;23;20066;-96
2023/03/16 02:23:50;;;;;;;8.90;3.63;;;;;;;;;;6223681;23;20020;-96
2023/03/16 02:26:23;;;;;;;11.18;3.88;;;;;;;;;;6222959;23;20095;-95
2023/03/16 02:28:58;;;;;;;11.00;3.42;;;;;;;;;;6225730;23;20004;-95
2023/03/16 02:31:24;;;;;;;10.00;4.15;;;;;;;;;;6222029;23;20205;-96
2023/03/16 02:33:56;;;;;;;9.50;3.28;;;;;;;;;;6196307;23;20019;-95
2023/03/16 02:36:24;;;;;;;7.15;3.22;;;;;;;;;;6223874;23;20000;-95
2023/03/16 02:38:51;;;;;;;16.50;3.70;;;;;;;;;;6200371;23;20502;-96
2023/03/16 02:41:18;;;;;;;10.50;3.63;;;;;;;;;;6195587;23;20015;-95
2023/03/16 02:44:09;;;;;;;11.32;3.45;;;;;;;;;;6220158;23;20000;-95
2023/03/16 02:46:36;;;;;;;14.55;3.58;;;;;;;;;;6203813;23;20050;-95
2023/03/16 02:49:15;;;;;;;6.05;3.63;;;;;;;;;;6218246;23;20274;-94
2023/03/16 02:51:42;;;;;;;7.97;3.45;;;;;;;;;;6218799;23;20012;-95
2023/03/16 02:54:08;;;;;;;15.60;3.95;;;;;;;;;;6217900;23;20014;-94
2023/03/16 02:56:34;;;;;;;10.40;3.33;;;;;;;;;;6193091;23;20944;-95
2023/03/16 02:59:00;;;;;;;14.20;3.50;;;;;;;;;;6191940;23;20497;-94
2023/03/16 03:01:26;;;;;;;7.65;3.50;;;;;;;;;;6219939;23;20004;-94
2023/03/16 03:03:52;;;;;;;10.57;3.72;;;;;;;;;;6193983;23;20008;-95
2023/03/16 03:06:18;;;;;;;14.27;3.63;;;;;;;;;;6193164;23;20054;-95
2023/03/16 03:08:45;;;;;;;13.30;4.07;;;;;;;;;;6219009;23;20434;-95
2023/03/16 03:11:11;;;;;;;7.47;3.85;;;;;;;;;;6193453;23;20016;-96
2023/03/16 03:13:38;;;;;;;11.88;3.95;;;;;;;;;;6192243;23;20085;-94
2023/03/16 03:16:04;;;;;;;7.00;3.45;;;;;;;;;;6191975;23;20019;-95
2023/03/16 03:18:30;;;;;;;6.55;2.88;;;;;;;;;;6217936;22;20047;-94
2023/03/16 03:20:57;;;;;;;8.20;3.70;;;;;;;;;;6193101;23;20014;-95
2023/03/16 03:23:30;;;;;;;9.48;4.38;;;;;;;;;;6190625;23;20253;-96
2023/03/16 03:25:57;;;;;;;11.80;4.00;;;;;;;;;;6219105;23;20004;-94
2023/03/16 03:28:23;;;;;;;9.95;3.70;;;;;;;;;;6192180;23;20013;-95
2023/03/16 03:30:50;;;;;;;11.70;3.78;;;;;;;;;;6192653;23;20012;-95
2023/03/16 03:33:16;;;;;;;8.23;3.55;;;;;;;;;;6192357;23;20008;-95
2023/03/16 03:35:43;;;;;;;6.50;2.90;;;;;;;;;;6216498;23;20012;-94
2023/03/16 03:38:18;;;;;;;6.82;3.17;;;;;;;;;;6193994;23;20434;-95
2023/03/16 03:40:44;;;;;;;7.50;3.45;;;;;;;;;;6220181;23;20067;-94
2023/03/16 03:43:10;;;;;;;4.43;3.00;;;;;;;;;;6189710;23;20447;-94
2023/03/16 03:45:36;;;;;;;7.53;3.45;;;;;;;;;;6215484;23;20012;-95
2023/03/16 03:48:03;;;;;;;12.95;3.80;;;;;;;;;;6191884;23;20143;-95
2023/03/16 03:50:29;;;;;;;7.40;2.95;;;;;;;;;;6218257;23;20003;-95
2023/03/16 03:52:55;;;;;;;5.47;3.20;;;;;;;;;;6218924;23;20015;-95
2023/03/16 03:55:22;;;;;;;13.00;3.60;;;;;;;;;;6219522;23;20106;-94
2023/03/16 03:57:49;;;;;;;6.63;2.58;;;;;;;;;;6218897;23;20022;-95
2023/03/16 04:00:20;;;;;;;2.25;1.63;;;;;;;;;;6193450;23;20012;-95
2023/03/16 04:02:47;;;;;;;7.78;3.30;;;;;;;;;;6194229;23;20390;-95
2023/03/16 04:05:16;;;;;;;6.38;3.35;;;;;;;;;;6218739;23;20031;-96
2023/03/16 04:07:46;;;;;;;9.30;3.70;;;;;;;;;;6220527;23;20012;-95
2023/03/16 04:10:12;;;;;;;5.00;2.97;;;;;;;;;;6220633;23;20087;-95
2023/03/16 04:12:38;;;;;;;8.85;3.97;;;;;;;;;;6194979;23;20008;-95
2023/03/16 04:15:04;;;;;;;14.07;3.72;;;;;;;;;;6193511;23;20466;-96
2023/03/16 04:17:38;;;;;;;15.63;3.47;;;;;;;;;;6196844;22;20557;-96
2023/03/16 04:20:18;;;;;;;9.32;3.63;;;;;;;;;;6248692;23;20034;-95
2023/03/16 04:22:45;;;;;;;12.43;3.50;;;;;;;;;;6199224;23;20127;-96
2023/03/16 04:25:12;;;;;;;6.15;3.13;;;;;;;;;;6219764;23;20000;-95
2023/03/16 04:27:38;;;;;;;9.02;3.42;;;;;;;;;;6219770;23;20109;-95
2023/03/16 04:30:15;;;;;;;6.35;3.28;;;;;;;;;;6219778;23;20004;-95
2023/03/16 04:32:41;;;;;;;6.68;3.30;;;;;;;;;;6220042;23;20493;-95
2023/03/16 04:35:07;;;;;;;8.00;3.55;;;;;;;;;;6220621;23;20082;-96
2023/03/16 04:37:36;;;;;;;7.53;3.55;;;;;;;;;;6197352;23;20023;-95
2023/03/16 04:40:10;;;;;;;6.05;2.75;;;;;;;;;;6193145;23;20012;-96
2023/03/16 04:42:40;;;;;;;7.90;3.35;;;;;;;;;;6219381;23;20407;-95
2023/03/16 04:45:07;;;;;;;13.27;3.17;;;;;;;;;;6192910;23;20011;-94
2023/03/16 04:47:33;;;;;;;9.52;3.90;;;;;;;;;;6193776;23;20015;-95
2023/03/16 04:50:03;;;;;;;9.82;3.97;;;;;;;;;;6221001;23;20062;-95
2023/03/16 04:52:29;;;;;;;7.80;3.80;;;;;;;;;;6195580;23;20127;-96
2023/03/16 04:54:55;;;;;;;9.60;3.38;;;;;;;;;;6194226;23;20020;-94
2023/03/16 04:57:31;;;;;;;9.25;2.13;;;;;;;;;;6221797;23;20114;-96
2023/03/16 04:59:57;;;;;;;10.43;2.78;;;;;;;;;;6197293;23;20070;-95
2023/03/16 05:02:26;;;;;;;6.03;3.50;;;;;;;;;;6193297;23;20069;-95
2023/03/16 05:04:54;;;;;;;10.15;3.30;;;;;;;;;;6193632;23;20043;-94
2023/03/16 05:07:20;;;;;;;9.07;3.25;;;;;;;;;;6192687;23;20027;-96
2023/03/16 05:10:02;;;;;;;6.60;3.20;;;;;;;;;;6194169;23;20036;-95
2023/03/16 05:12:28;;;;;;;7.93;3.78;;;;;;;;;;6218318;23;20057;-96
2023/03/16 05:14:55;;;;;;;9.13;3.38;;;;;;;;;;6192345;23;20068;-95
2023/03/16 05:17:21;;;;;;;12.35;3.88;;;;;;;;;;6193844;23;20008;-95
2023/03/16 05:19:48;;;;;;;7.63;4.15;;;;;;;;;;6195034;22;20020;-95
2023/03/16 05:22:14;;;;;;;10.95;2.95;;;;;;;;;;6193585;23;20087;-96
2023/03/16 05:24:40;;;;;;;6.72;3.60;;;;;;;;;;6192662;23;20004;-95
2023/03/16 05:27:06;;;;;;;6.03;3.35;;;;;;;;;;6218012;23;20480;-96
2023/03/16 05:29:33;;;;;;;7.30;2.45;;;;;;;;;;6191035;23;20015;-96
2023/03/16 05:31:59;;;;;;;7.60;3.03;;;;;;;;;;6196391;23;20016;-96
2023/03/16 05:34:26;;;;;;;3.65;1.67;;;;;;;;;;6192601;23;20031;-95
2023/03/16 05:36:52;;;;;;;10.05;3.53;;;;;;;;;;6195327;23;20078;-95
2023/03/16 05:39:18;;;;;;;6.63;3.63;;;;;;;;;;6192620;23;20051;-95
2023/03/16 05:41:44;;;;;;;7.28;4.00;;;;;;;;;;6192449;23;20500;-95
2023/03/16 05:44:12;;;;;;;5.55;2.58;;;;;;;;;;6189176;23;20465;-95
2023/03/16 05:46:38;;;;;;;12.50;4.55;;;;;;;;;;6217772;23;20446;-94
2023/03/16 05:49:12;;;;;;;10.15;4.10;;;;;;;;;;6188607;23;20422;-95
2023/03/16 05:51:38;;;;;;;4.53;2.92;;;;;;;;;;6218857;23;20004;-95
2023/03/16 05:54:31;;;;;;;7.00;2.40;;;;;;;;;;6217622;23;20035;-95
2023/03/16 05:57:05;;;;;;;8.77;3.28;;;;;;;;;;6214001;23;20011;-95
2023/03/16 05:59:32;;;;;;;5.10;3.00;;;;;;;;;;6195653;22;21323;-95
2023/03/16 06:02:04;;;;;;;11.20;4.10;;;;;;;;;;6192276;23;20353;-95
2023/03/16 06:04:31;;;;;;;7.88;3.42;;;;;;;;;;6219299;23;20004;-95
2023/03/16 06:06:58;;;;;;;4.65;2.47;;;;;;;;;;6193511;23;20042;-94
2023/03/16 06:09:28;;;;;;;8.23;3.92;;;;;;;;;;6218072;23;20004;-94
2023/03/16 06:11:57;;;;;;;3.50;2.20;;;;;;;;;;6217364;23;20019;-95
2023/03/16 06:14:29;;;;;;;7.93;3.40;;;;;;;;;;6194108;23;20016;-95
2023/03/16 06:17:05;;;;;;;5.22;3.55;;;;;;;;;;6218009;23;20012;-95
2023/03/16 06:19:37;;;;;;;6.60;3.22;;;;;;;;;;6194817;22;20028;-96
2023/03/16 06:22:11;;;;;;;9.88;3.70;;;;;;;;;;6218820;23;20064;-96
2023/03/16 06:24:46;;;;;;;8.88;3.78;;;;;;;;;;6193586;23;20014;-95
2023/03/16 06:27:18;;;;;;;14.88;3.28;;;;;;;;;;6195348;23;20012;-95
2023/03/16 06:29:44;;;;;;;6.53;3.58;;;;;;;;;;6216238;23;20341;-95
2023/03/16 06:32:11;;;;;;;8.65;3.50;;;;;;;;;;6192206;23;20098;-95
2023/03/16 06:34:37;;;;;;;6.13;2.88;;;;;;;;;;6215344;23;20007;-95
2023/03/16 06:37:03;;;;;;;7.07;3.17;;;;;;;;;;6190975;23;20450;-95
2023/03/16 06:39:29;;;;;;;9.57;2.65;;;;;;;;;;6215469;23;20012;-95
2023/03/16 06:41:59;;;;;;;8.35;4.30;;;;;;;;;;6192988;23;20036;-95
2023/03/16 06:44:25;;;;;;;9.00;3.78;;;;;;;;;;6189259;23;20044;-95
2023/03/16 06:46:51;;;;;;;7.72;4.13;;;;;;;;;;6214532;23;20004;-95
2023/03/16 06:49:17;;;;;;;6.03;3.88;;;;;;;;;;6189122;23;20099;-95
2023/03/16 06:51:44;;;;;;;7.78;3.75;;;;;;;;;;6190561;23;20012;-95
2023/03/16 06:54:10;;;;;;;13.05;4.10;;;;;;;;;;6189295;23;20012;-95
2023/03/16 06:56:36;;;;;;;9.55;3.90;;;;;;;;;;6217231;23;20082;-94
2023/03/16 06:59:03;;;;;;;4.60;2.75;;;;;;;;;;6189508;23;20023;-95
2023/03/16 07:01:29;;;;;;;6.07;3.90;;;;;;;;;;6189605;23;20019;-95
2023/03/16 07:03:55;;;;;;;10.13;3.55;;;;;;;;;;6189177;23;20008;-95
2023/03/16 07:06:21;;;;;;;3.63;1.88;;;;;;;;;;6191608;23;20079;-95
2023/03/16 07:08:47;;;;;;;5.30;3.20;;;;;;;;;;6190710;23;20031;-95
2023/03/16 07:11:14;;;;;;;9.02;3.47;;;;;;;;;;6215058;23;20425;-95
2023/03/16 07:13:47;;;;;;;5.15;2.95;;;;;;;;;;6191385;23;20030;-95
2023/03/16 07:16:16;;;;;;;8.95;3.78;;;;;;;;;;6214054;23;20241;-94
2023/03/16 07:18:51;;;;;;;8.75;4.25;;;;;;;;;;6191329;22;20618;-95
2023/03/16 07:21:17;;;;;;;5.68;2.95;;;;;;;;;;6190770;23;20389;-95
2023/03/16 07:23:46;;;;;;;4.32;2.55;;;;;;;;;;6190414;23;20095;-94
2023/03/16 07:26:15;;;;;;;10.00;3.33;;;;;;;;;;6195763;23;20055;-95
2023/03/16 07:28:44;;;;;;;7.45;2.20;;;;;;;;;;6218185;23;20011;-95
2023/03/16 07:31:11;;;;;;;5.75;3.40;;;;;;;;;;6198177;23;20231;-95
2023/03/16 07:36:33;;;;;;;7.88;3.33;;;;;;;;;;6243001;23;20008;-95
2023/03/16 07:39:01;;;;;;;8.65;3.55;;;;;;;;;;6194016;23;20016;-94
2023/03/16 07:41:27;;;;;;;6.85;3.53;;;;;;;;;;6192890;23;20442;-95
2023/03/16 07:43:53;;;;;;;7.40;2.45;;;;;;;;;;6189550;23;20174;-95
2023/03/16 07:46:22;;;;;;;3.55;2.40;;;;;;;;;;6194588;23;20427;-96
2023/03/16 07:48:49;;;;;;;7.40;3.25;;;;;;;;;;6192085;23;20012;-96
2023/03/16 07:51:18;;;;;;;7.00;3.90;;;;;;;;;;6191334;23;20016;-95
2023/03/16 07:53:44;;;;;;;9.02;3.53;;;;;;;;;;6191162;23;20012;-95
2023/03/16 07:56:11;;;;;;;8.23;3.67;;;;;;;;;;6190057;23;20489;-94
2023/03/16 07:58:37;;;;;;;8.55;3.60;;;;;;;;;;6190097;23;20035;-94
2023/03/16 08:01:03;;;;;;;6.20;2.22;;;;;;;;;;6190891;23;20046;-96
2023/03/16 08:03:30;;;;;;;6.75;3.90;;;;;;;;;;6190674;23;20012;-94
2023/03/16 08:05:56;;;;;;;7.18;3.33;;;;;;;;;;6191661;23;20100;-95
2023/03/16 08:08:23;;;;;;;6.88;2.78;;;;;;;;;;6218114;23;20091;-95
2023/03/16 08:10:52;;;;;;;5.05;2.88;;;;;;;;;;6218038;23;20330;-95
2023/03/16 08:13:18;;;;;;;7.75;3.70;;;;;;;;;;6218498;23;20493;-94
2023/03/16 08:15:49;;;;;;;9.80;2.92;;;;;;;;;;6217464;23;20004;-92
2023/03/16 08:18:22;;;;;;;7.78;2.08;;;;;;;;;;6216707;22;20528;-91
2023/03/16 08:20:49;;;;;;;9.40;2.90;;;;;;;;;;6193225;23;20020;-90
2023/03/16 08:23:18;;;;;;;13.43;4.15;;;;;;;;;;6192241;23;20099;-91
2023/03/16 08:25:45;;;;;;;12.85;3.90;;;;;;;;;;6193014;23;20043;-91
2023/03/16 08:28:11;;;;;;;5.25;3.10;;;;;;;;;;6217784;23;20083;-90
2023/03/16 08:30:37;;;;;;;8.57;4.18;;;;;;;;;;6192374;23;20093;-92
2023/03/16 08:33:04;;;;;;;7.78;3.47;;;;;;;;;;6219613;23;20008;-92
2023/03/16 08:35:31;;;;;;;3.22;1.90;;;;;;;;;;6195584;23;20012;-91
2023/03/16 08:37:58;;;;;;;4.20;2.33;;;;;;;;;;6195550;23;20099;-91
2023/03/16 08:40:27;;;;;;;7.20;3.90;;;;;;;;;;6218233;23;20008;-90
2023/03/16 08:42:54;;;;;;;10.63;3.38;;;;;;;;;;6216356;23;20008;-91
2023/03/16 08:45:22;;;;;;;7.63;3.63;;;;;;;;;;6192706;23;20004;-91
2023/03/16 08:47:49;;;;;;;8.02;2.38;;;;;;;;;;6192614;23;20016;-90
2023/03/16 08:50:15;;;;;;;4.07;2.15;;;;;;;;;;6197179;23;20012;-91
2023/03/16 08:52:41;;;;;;;4.75;2.67;;;;;;;;;;6221583;23;20012;-90
2023/03/16 08:55:09;;;;;;;6.28;2.95;;;;;;;;;;6196506;23;20016;-91
2023/03/16 08:57:37;;;;;;;7.00;2.92;;;;;;;;;;6196354;23;20342;-89
2023/03/16 09:00:13;;;;;;;7.15;3.28;;;;;;;;;;6219765;23;20457;-92
2023/03/16 09:02:43;;;;;;;6.38;2.92;;;;;;;;;;6222411;23;20058;-91
2023/03/16 09:05:10;;;;;;;4.80;2.17;;;;;;;;;;6196067;23;20055;-91
2023/03/16 09:07:38;;;;;;;6.65;2.50;;;;;;;;;;6220668;23;20008;-92
2023/03/16 09:10:08;;;;;;;3.88;2.00;;;;;;;;;;6219999;23;20008;-91
2023/03/16 09:12:36;;;;;;;8.30;3.42;;;;;;;;;;6198049;23;20664;-91
2023/03/16 09:15:02;;;;;;;8.00;3.78;;;;;;;;;;6220433;23;20014;-91
2023/03/16 09:17:32;;;;;;;5.10;2.88;;;;;;;;;;6197017;23;20012;-91
2023/03/16 09:19:58;;;;;;;4.68;2.40;;;;;;;;;;6221349;22;20013;-92
2023/03/16 09:22:24;;;;;;;5.30;3.20;;;;;;;;;;6195634;23;20091;-92
2023/03/16 09:24:50;;;;;;;7.93;3.22;;;;;;;;;;6219191;23;20004;-93
2023/03/16 09:27:17;;;;;;;4.32;2.42;;;;;;;;;;6221267;23;20001;-91
2023/03/16 09:29:51;;;;;;;4.97;3.00;;;;;;;;;;6195236;23;20012;-91
2023/03/16 09:32:17;;;;;;;5.65;3.30;;;;;;;;;;6197906;23;20008;-93
2023/03/16 09:34:44;;;;;;;6.72;3.50;;;;;;;;;;6221314;23;20054;-92
2023/03/16 09:37:13;;;;;;;13.50;3.13;;;;;;;;;;6196650;23;20031;-92
2023/03/16 09:39:51;;;;;;;7.15;3.38;;;;;;;;;;6197493;23;20034;-92
2023/03/16 09:42:18;;;;;;;6.20;3.03;;;;;;;;;;6220644;23;20008;-92
2023/03/16 09:44:53;;;;;;;8.82;3.90;;;;;;;;;;6219047;23;19996;-90
2023/03/16 09:47:23;;;;;;;5.57;2.80;;;;;;;;;;6221176;23;20006;-92
2023/03/16 09:49:51;;;;;;;7.70;3.40;;;;;;;;;;6221760;23;20403;-91
2023/03/16 09:52:26;;;;;;;5.53;2.53;;;;;;;;;;6197989;23;20034;-92
2023/03/16 09:54:56;;;;;;;8.60;3.70;;;;;;;;;;6221009;23;20008;-91
2023/03/16 09:57:34;;;;;;;6.13;3.30;;;;;;;;;;6221592;23;20008;-92
2023/03/16 10:00:14;;;;;;;7.13;2.80;;;;;;;;;;6245949;22;20008;-91
2023/03/16 10:02:47;;;;;;;7.70;2.83;;;;;;;;;;6218412;23;20004;-91
2023/03/16 10:05:15;;;;;;;7.68;2.83;;;;;;;;;;6220462;23;20405;-91
2023/03/16 10:07:59;;;;;;;8.00;3.60;;;;;;;;;;6250116;23;20019;-91
2023/03/16 10:10:37;;;;;;;8.65;3.30;;;;;;;;;;6221318;23;20004;-91
2023/03/16 10:13:04;;;;;;;9.45;4.20;;;;;;;;;;6222175;23;20091;-92
2023/03/16 10:15:32;;;;;;;7.38;3.47;;;;;;;;;;6220629;23;20007;-92
2023/03/16 10:17:58;;;;;;;6.45;3.05;;;;;;;;;;6222308;23;20008;-91
2023/03/16 10:20:26;;;;;;;5.80;2.85;;;;;;;;;;6222631;22;20042;-91
2023/03/16 10:22:54;;;;;;;10.43;3.53;;;;;;;;;;6249219;23;20000;-92
2023/03/16 10:25:26;;;;;;;8.82;2.97;;;;;;;;;;6220918;23;20000;-92
2023/03/16 10:27:53;;;;;;;10.30;4.97;;;;;;;;;;6222000;23;20008;-91
2023/03/16 10:30:19;;;;;;;13.80;4.00;;;;;;;;;;6222702;23;20514;-92
2023/03/16 10:32:47;;;;;;;11.32;3.95;;;;;;;;;;6249545;23;20000;-92
2023/03/16 10:35:22;;;;;;;5.55;3.40;;;;;;;;;;6223599;23;20036;-91
2023/03/16 10:37:48;;;;;;;12.20;3.83;;;;;;;;;;6222421;23;20012;-90
2023/03/16 10:40:15;;;;;;;10.05;3.90;;;;;;;;;;6220560;23;20004;-94
2023/03/16 10:42:41;;;;;;;8.38;4.15;;;;;;;;;;6217012;23;20354;-93
2023/03/16 10:45:19;;;;;;;9.55;4.65;;;;;;;;;;6218772;23;20008;-93
2023/03/16 10:47:45;;;;;;;10.43;3.65;;;;;;;;;;6219168;23;20063;-94
2023/03/16 10:50:15;;;;;;;7.40;3.42;;;;;;;;;;6195636;23;20100;-93
2023/03/16 10:52:45;;;;;;;6.20;2.85;;;;;;;;;;6196243;23;20426;-93
2023/03/16 10:55:14;;;;;;;11.32;3.72;;;;;;;;;;6221290;23;20004;-95
2023/03/16 10:57:50;;;;;;;10.75;3.60;;;;;;;;;;6220980;23;20008;-95
2023/03/16 11:00:27;;;;;;;10.30;4.20;;;;;;;;;;6218764;23;20426;-96
2023/03/16 11:02:54;;;;;;;4.28;2.63;;;;;;;;;;6217153;23;20372;-94
2023/03/16 11:05:29;;;;;;;11.35;4.63;;;;;;;;;;6218463;23;20596;-95
2023/03/16 11:08:09;;;;;;;11.63;4.35;;;;;;;;;;6216353;23;20060;-95
2023/03/16 11:10:40;;;;;;;10.77;4.18;;;;;;;;;;6217310;23;20012;-95
2023/03/16 11:13:12;;;;;;;7.78;4.45;;;;;;;;;;6217639;23;20083;-95
2023/03/16 11:15:50;;;;;;;9.35;4.72;;;;;;;;;;6215506;23;20066;-96
2023/03/16 11:18:41;;;;;;;11.95;4.78;;;;;;;;;;6242898;23;20012;-95
2023/03/16 11:21:28;;;;;;;9.25;4.03;;;;;;;;;;6146338;23;20017;-93
2023/03/16 11:23:57;;;;;;;7.07;3.80;;;;;;;;;;6184912;23;20777;-94
2023/03/16 11:26:31;;;;;;;11.27;5.15;;;;;;;;;;6162182;23;20104;-95
2023/03/16 11:29:12;;;;;;;8.73;4.90;;;;;;;;;;6211735;23;20459;-94
2023/03/16 11:31:41;;;;;;;8.38;4.15;;;;;;;;;;6212496;23;20020;-94
2023/03/16 11:34:18;;;;;;;9.40;3.50;;;;;;;;;;6211023;23;20005;-95
2023/03/16 11:36:59;;;;;;;8.60;4.40;;;;;;;;;;6160879;23;20009;-95
2023/03/16 11:39:46;;;;;;;9.15;3.60;;;;;;;;;;6211014;23;20079;-94
2023/03/16 11:42:19;;;;;;;8.57;4.00;;;;;;;;;;6211813;23;20145;-93
2023/03/16 11:45:04;;;;;;;5.32;2.88;;;;;;;;;;6212703;23;20012;-94
2023/03/16 11:47:51;;;;;;;8.90;4.30;;;;;;;;;;6208872;23;20016;-94
2023/03/16 11:50:17;;;;;;;;;;;;;;;;;;6185670;23;20406;-94
2023/03/16 11:52:49;;;;;;;8.77;5.07;;;;;;;;;;6183578;23;19907;-94
2023/03/16 11:55:48;;;;;;;8.65;4.22;;;;;;;;;;6210159;23;20004;-94
2023/03/16 11:58:31;;;;;;;10.55;3.67;;;;;;;;;;6214070;23;20012;-93
2023/03/16 12:00:57;;;;;;;9.50;4.32;;;;;;;;;;6210991;23;20005;-93
2023/03/16 12:03:43;;;;;;;8.43;4.50;;;;;;;;;;6210795;23;20008;-92
2023/03/16 12:06:28;;;;;;;17.98;4.57;;;;;;;;;;6209809;23;20079;-93
2023/03/16 12:09:05;;;;;;;6.30;3.20;;;;;;;;;;6210239;23;20004;-93
2023/03/16 12:11:38;;;;;;;10.15;4.22;;;;;;;;;;6210421;23;20087;-92
2023/03/16 12:14:07;;;;;;;11.98;4.30;;;;;;;;;;6210262;23;20004;-93
2023/03/16 12:16:46;;;;;;;6.63;3.92;;;;;;;;;;6210962;23;20012;-93
2023/03/16 12:19:27;;;;;;;12.52;3.70;;;;;;;;;;6223580;22;20045;-92
2023/03/16 12:22:17;;;;;;;5.05;3.05;;;;;;;;;;6216497;23;20071;-92
2023/03/16 12:24:47;;;;;;;7.88;3.83;;;;;;;;;;6220257;23;20393;-92
2023/03/16 12:27:18;;;;;;;11.00;3.83;;;;;;;;;;6218109;23;20003;-93
2023/03/16 12:29:55;;;;;;;8.30;4.10;;;;;;;;;;6218022;23;20016;-93
2023/03/16 12:32:30;;;;;;;9.10;3.58;;;;;;;;;;6215005;23;20011;-93
2023/03/16 12:35:22;;;;;;;5.20;2.92;;;;;;;;;;6215990;23;20019;-92
2023/03/16 12:38:07;;;;;;;9.02;3.80;;;;;;;;;;6206653;23;20015;-90
2023/03/16 12:40:33;;;;;;;8.32;3.88;;;;;;;;;;6244337;23;20008;-92
2023/03/16 12:43:02;;;;;;;7.35;3.53;;;;;;;;;;6217731;23;20004;-93
2023/03/16 12:45:28;;;;;;;6.43;3.28;;;;;;;;;;6218521;23;20000;-92
2023/03/16 12:48:14;;;;;;;7.75;3.47;;;;;;;;;;6244691;23;20023;-92
2023/03/16 12:50:48;;;;;;;8.88;3.75;;;;;;;;;;6218545;23;20031;-92
2023/03/16 12:53:25;;;;;;;8.07;3.83;;;;;;;;;;6217834;23;20012;-92
2023/03/16 12:55:52;;;;;;;8.00;3.70;;;;;;;;;;6217846;23;20054;-93
2023/03/16 12:58:18;;;;;;;5.38;2.83;;;;;;;;;;6192428;23;20016;-93
2023/03/16 13:00:55;;;;;;;6.90;4.15;;;;;;;;;;6217170;23;20095;-92
2023/03/16 13:03:22;;;;;;;9.02;3.40;;;;;;;;;;6215395;23;20315;-92
2023/03/16 13:05:54;;;;;;;6.25;3.15;;;;;;;;;;6192313;23;20039;-90
2023/03/16 13:08:22;;;;;;;10.63;3.30;;;;;;;;;;6220157;23;20083;-90
2023/03/16 13:11:02;;;;;;;4.13;2.38;;;;;;;;;;6219632;23;20015;-92
2023/03/16 13:13:37;;;;;;;5.40;2.92;;;;;;;;;;6218950;23;20105;-92
2023/03/16 13:16:09;;;;;;;5.32;3.17;;;;;;;;;;6217895;23;20027;-92
2023/03/16 13:18:43;;;;;;;10.35;3.50;;;;;;;;;;6219093;22;20015;-92
2023/03/16 13:21:34;;;;;;;19.50;3.95;;;;;;;;;;6244905;23;20016;-92
2023/03/16 13:24:22;;;;;;;4.70;2.88;;;;;;;;;;6217559;23;20339;-96
2023/03/16 13:26:52;;;;;;;6.28;3.42;;;;;;;;;;6158072;23;20001;-96
2023/03/16 13:29:24;;;;;;;4.18;2.65;;;;;;;;;;6217347;23;20008;-95
2023/03/16 13:31:51;;;;;;;5.28;2.60;;;;;;;;;;6217541;23;20012;-96
2023/03/16 13:34:22;;;;;;;9.10;2.60;;;;;;;;;;6217134;23;20059;-95
2023/03/16 13:36:52;;;;;;;11.82;3.22;;;;;;;;;;6216949;23;20082;-96
2023/03/16 13:39:21;;;;;;;3.13;1.52;;;;;;;;;;6216908;23;20033;-96
2023/03/16 13:42:06;;;;;;;8.55;4.13;;;;;;;;;;6218033;23;20095;-96
2023/03/16 13:44:32;;;;;;;6.22;2.70;;;;;;;;;;6215478;23;20434;-96
2023/03/16 13:47:06;;;;;;;4.75;2.25;;;;;;;;;;6217812;23;20008;-96
2023/03/16 13:49:32;;;;;;;12.70;3.60;;;;;;;;;;6216401;23;20030;-96
2023/03/16 13:52:04;;;;;;;5.95;2.80;;;;;;;;;;6217097;23;20317;-95
2023/03/16 13:54:31;;;;;;;4.60;1.48;;;;;;;;;;6191065;23;20016;-95
2023/03/16 13:56:59;;;;;;;8.63;3.40;;;;;;;;;;6191904;23;20346;-96
2023/03/16 13:59:25;;;;;;;4.45;2.47;;;;;;;;;;6215582;22;20008;-96
2023/03/16 14:02:00;;;;;;;8.73;3.28;;;;;;;;;;6191217;23;20012;-95
2023/03/16 14:04:28;;;;;;;3.50;2.25;;;;;;;;;;6215474;23;20043;-96
2023/03/16 14:07:02;;;;;;;6.80;2.75;;;;;;;;;;6215310;23;20082;-96
2023/03/16 14:09:33;;;;;;;7.32;2.65;;;;;;;;;;6216760;23;20061;-96
2023/03/16 14:11:59;;;;;;;11.35;3.42;;;;;;;;;;6218346;23;20366;-96
2023/03/16 14:14:31;;;;;;;4.65;2.55;;;;;;;;;;6244946;23;20061;-95
2023/03/16 14:17:10;;;;;;;6.22;2.67;;;;;;;;;;6193756;23;20433;-96
2023/03/16 14:20:00;;;;;;;8.05;3.75;;;;;;;;;;6223138;22;20026;-96
2023/03/16 14:22:35;;;;;;;5.97;2.47;;;;;;;;;;6206947;23;20016;-96
2023/03/16 14:25:04;;;;;;;4.68;2.67;;;;;;;;;;6220602;23;20015;-96
2023/03/16 14:27:44;;;;;;;4.65;2.90;;;;;;;;;;6221891;23;20039;-95
2023/03/16 14:30:19;;;;;;;4.78;2.88;;;;;;;;;;6222841;23;20004;-96
2023/03/16 14:32:55;;;;;;;8.88;3.65;;;;;;;;;;6222202;23;20036;-96
2023/03/16 14:35:25;;;;;;;9.63;3.88;;;;;;;;;;6220105;23;20008;-95
2023/03/16 14:37:55;;;;;;;10.27;2.97;;;;;;;;;;6220505;23;20012;-95
2023/03/16 14:40:23;;;;;;;5.80;2.50;;;;;;;;;;6195943;23;20042;-94
2023/03/16 14:42:50;;;;;;;9.55;3.10;;;;;;;;;;6220315;23;20008;-96
2023/03/16 14:45:38;;;;;;;8.07;3.10;;;;;;;;;;6219996;23;20074;-95
2023/03/16 14:48:09;;;;;;;6.93;2.70;;;;;;;;;;6220427;23;20338;-96
2023/03/16 14:50:36;;;;;;;5.57;3.33;;;;;;;;;;6219616;23;20034;-95
2023/03/16 14:53:03;;;;;;;5.60;2.40;;;;;;;;;;6196525;23;20323;-95
2023/03/16 14:55:29;;;;;;;9.60;3.08;;;;;;;;;;6221873;23;20008;-95
2023/03/16 14:57:55;;;;;;;6.55;2.83;;;;;;;;;;6196762;23;20008;-95
2023/03/16 15:00:22;;;;;;;5.57;3.28;;;;;;;;;;6196287;23;20066;-95
2023/03/16 15:02:56;;;;;;;5.72;3.25;;;;;;;;;;6221869;23;20087;-95